Cap Aiguades — FMII — position and weather

sailwx.info

Track history (hours):
 
Tides and Currents Weather Stations Pressure Air Temp Water Temp Dewpoint Dewpoint Depression Visibility Wind Speed Wind Dir Waves Ship Positions

Cap Aiguades

Last reported at 2014-Aug-23 03:33 UTC. Time now 2014-Aug-23 13:30 UTC.
Position N 43°24' E 004°55'.

Length 89 m; draft 3 m.

Type: Ship. MMSI: 228237800.

Date/timePositionNaut miles runAvg speedWind from/ knotsBaromVisibWave heightAir tempDewpointWater temp
2014-Aug-23 03:33N 43°24' E 004°55'3 2.8
2014-Aug-23 02:33N 43°24' E 004°59'0 0.0
2014-Aug-23 01:33N 43°24' E 004°59'0 0.0
2014-Aug-23 00:33N 43°24' E 004°59'0 0.0
2014-Aug-22 23:33N 43°24' E 004°59'0 0.0
2014-Aug-22 22:33N 43°24' E 004°59'0 0.0
2014-Aug-22 21:33N 43°24' E 004°59'0 0.0
2014-Aug-22 20:33N 43°24' E 004°59'0 0.0
2014-Aug-22 19:33N 43°24' E 004°59'0 0.0
2014-Aug-22 18:33N 43°24' E 004°59'0 0.0
2014-Aug-22 17:33N 43°24' E 004°59'0 0.0
2014-Aug-22 16:33N 43°24' E 004°59'0 0.0
2014-Aug-22 15:33N 43°24' E 004°59'0 0.0
2014-Aug-22 14:33N 43°24' E 004°59'0 0.0
2014-Aug-22 13:33N 43°24' E 004°59'0 0.0
2014-Aug-22 12:33N 43°24' E 004°59'1 0.6
2014-Aug-22 11:33N 43°24' E 004°59'0 0.0
2014-Aug-22 10:33N 43°24' E 004°59'7 7.1
2014-Aug-22 09:33N 43°18' E 005°03'1110.6
2014-Aug-22 08:33N 43°20' E 005°17'2 2.4
2014-Aug-22 07:33N 43°21' E 005°20'0 0.0
2014-Aug-22 06:33N 43°21' E 005°20'15 7.5
2014-Aug-22 04:33N 43°19' E 005°00'4 4.3
2014-Aug-22 03:33N 43°24' E 004°59'0 0.0
2014-Aug-22 02:33N 43°24' E 004°59'0 0.0
2014-Aug-22 01:33N 43°24' E 004°59'0 0.0
2014-Aug-22 00:33N 43°24' E 004°59'0 0.0
2014-Aug-21 23:33N 43°24' E 004°59'0 0.0
2014-Aug-21 22:33N 43°24' E 004°59'0 0.0
2014-Aug-21 21:33N 43°24' E 004°59'0 0.0
2014-Aug-21 20:33N 43°24' E 004°59'0 0.0
2014-Aug-21 19:33N 43°24' E 004°59'0 0.0
2014-Aug-21 18:33N 43°24' E 004°59'0 0.0
2014-Aug-21 17:33N 43°24' E 004°59'0 0.0
2014-Aug-21 16:33N 43°24' E 004°59'1 0.5
2014-Aug-21 15:33N 43°24' E 004°59'0 0.0
2014-Aug-21 14:33N 43°24' E 004°59'0 0.0
2014-Aug-21 13:33N 43°24' E 004°59'1 1.4
2014-Aug-21 12:33N 43°23' E 004°58'4 4.1
2014-Aug-21 11:33N 43°25' E 004°53'0 0.0
2014-Aug-21 10:33N 43°25' E 004°53'0 0.0
2014-Aug-21 09:33N 43°25' E 004°53'3 3.2
2014-Aug-21 08:33N 43°24' E 004°57'2 1.7
2014-Aug-21 07:33N 43°24' E 004°59'0 0.0
2014-Aug-21 06:33N 43°24' E 004°59'0 0.0
2014-Aug-21 05:33N 43°24' E 004°59'0 0.2
2014-Aug-21 04:33N 43°24' E 004°59'9 8.6
2014-Aug-21 03:33N 43°15' E 005°01'10 8.2
2014-Aug-21 02:17N 43°09' E 005°13'16 9.0
2014-Aug-21 00:32N 43°05' E 005°34'9 9.2
2014-Aug-20 23:34N 43°02' E 005°45'9 9.3
2014-Aug-20 22:33N 43°02' E 005°58'5 4.5
2014-Aug-20 21:29N 43°07' E 005°56'0 0.1
2014-Aug-20 19:10N 43°07' E 005°56'0 0.0
2014-Aug-20 18:31N 43°07' E 005°56'0 0.1
2014-Aug-20 17:19N 43°07' E 005°56'0 0.0
2014-Aug-20 16:31N 43°07' E 005°56'0 0.0
2014-Aug-20 14:25N 43°07' E 005°56'0 0.1
2014-Aug-20 13:31N 43°07' E 005°56'2 1.2
2014-Aug-20 12:15N 43°06' E 005°54'0 0.0
2014-Aug-20 10:30N 43°06' E 005°54'0 0.0
2014-Aug-20 09:18N 43°06' E 005°54'2 1.6
2014-Aug-20 08:20N 43°07' E 005°56'0 0.0
2014-Aug-20 07:23N 43°07' E 005°56'0 0.0
2014-Aug-20 06:29N 43°07' E 005°56'0 0.1
2014-Aug-20 05:29N 43°07' E 005°56'0 0.0
2014-Aug-20 04:17N 43°07' E 005°56'0 0.3
2014-Aug-20 03:33N 43°07' E 005°56'2 1.5
2014-Aug-20 02:28N 43°06' E 005°53'0 0.0
2014-Aug-20 01:31N 43°06' E 005°53'0 0.0
2014-Aug-20 00:28N 43°06' E 005°53'0 0.0
2014-Aug-19 23:28N 43°06' E 005°53'0 0.0
2014-Aug-19 22:25N 43°06' E 005°53'0 0.0
2014-Aug-19 21:07N 43°06' E 005°53'0 0.0
2014-Aug-19 20:16N 43°06' E 005°53'0 0.0
2014-Aug-19 19:04N 43°06' E 005°53'0 0.0
2014-Aug-19 17:25N 43°06' E 005°53'1 0.4
2014-Aug-19 15:33N 43°07' E 005°54'2 0.6
2014-Aug-19 12:33N 43°05' E 005°57'9 9.1
2014-Aug-19 11:33N 42°57' E 005°60'8 8.2
2014-Aug-19 10:33N 42°56' E 005°49'1010.1
2014-Aug-19 09:33N 42°59' E 005°36'2610.4
2014-Aug-19 07:05N 43°10' E 005°04'5 9.3
2014-Aug-19 06:33N 43°14' E 005°00'10 9.7
2014-Aug-19 05:33N 43°24' E 004°59'0 0.1
2014-Aug-19 04:32N 43°24' E 004°59'0 0.0
2014-Aug-19 03:32N 43°24' E 004°59'0 0.0
2014-Aug-19 02:32N 43°24' E 004°59'0 0.0
2014-Aug-19 01:32N 43°24' E 004°59'0 0.0
2014-Aug-19 00:32N 43°24' E 004°59'0 0.0
2014-Aug-18 23:32N 43°24' E 004°59'0 0.0
2014-Aug-18 22:32N 43°24' E 004°59'0 0.0
2014-Aug-18 21:32N 43°24' E 004°59'0 0.0
2014-Aug-18 20:32N 43°24' E 004°59'0 0.0
2014-Aug-18 19:32N 43°24' E 004°59'0 0.0
2014-Aug-18 18:32N 43°24' E 004°59'0 0.0
2014-Aug-18 17:32N 43°24' E 004°59'0 0.0
2014-Aug-18 16:32N 43°24' E 004°59'0 0.0
2014-Aug-18 15:32N 43°24' E 004°59'1 0.6
2014-Aug-18 14:33N 43°24' E 004°59'0 0.0
2014-Aug-18 13:33N 43°24' E 004°59'0 0.0
2014-Aug-18 12:33N 43°24' E 004°59'0 0.0
2014-Aug-18 11:33N 43°24' E 004°59'0 0.0
2014-Aug-18 10:33N 43°24' E 004°59'0 0.0
2014-Aug-18 09:30N 43°24' E 004°59'0 0.0
2014-Aug-18 08:33N 43°24' E 004°59'0 0.0
2014-Aug-18 07:33N 43°24' E 004°59'0 0.0
2014-Aug-18 06:33N 43°24' E 004°59'0 0.0
2014-Aug-18 05:33N 43°24' E 004°59'0 0.0
2014-Aug-18 04:33N 43°24' E 004°59'0 0.0
2014-Aug-18 03:33N 43°24' E 004°59'0 0.0
2014-Aug-18 02:33N 43°24' E 004°59'0 0.0
2014-Aug-18 01:33N 43°24' E 004°59'0 0.0
2014-Aug-18 00:33N 43°24' E 004°59'0 0.0
2014-Aug-17 18:33N 43°24' E 004°59'0 0.0
2014-Aug-17 17:33N 43°24' E 004°59'0 0.0
2014-Aug-17 16:33N 43°24' E 004°59'0 0.0
2014-Aug-17 15:33N 43°24' E 004°59'7 3.4
2014-Aug-17 13:32N 43°25' E 004°50'0 0.0
2014-Aug-17 12:26N 43°25' E 004°50'0 0.0
2014-Aug-17 11:32N 43°25' E 004°50'0 0.0
2014-Aug-17 10:26N 43°25' E 004°50'0 0.0
2014-Aug-17 09:32N 43°25' E 004°50'3 1.0
2014-Aug-17 06:33N 43°24' E 004°54'4 4.0
2014-Aug-17 05:33N 43°24' E 004°59'0 0.0
2014-Aug-17 04:33N 43°24' E 004°59'0 0.0
2014-Aug-17 03:33N 43°24' E 004°59'0 0.0
2014-Aug-17 02:33N 43°24' E 004°59'0 0.0
2014-Aug-17 01:33N 43°24' E 004°59'0 0.0
2014-Aug-17 00:33N 43°24' E 004°59'0 0.0
2014-Aug-16 23:33N 43°24' E 004°59'0 0.0
2014-Aug-16 22:33N 43°24' E 004°59'0 0.0
2014-Aug-16 21:33N 43°24' E 004°59'0 0.1
2014-Aug-16 20:33N 43°24' E 004°59'6 6.0
2014-Aug-16 19:31N 43°25' E 004°51'0 0.0
2014-Aug-16 18:31N 43°25' E 004°51'0 0.0
2014-Aug-16 17:25N 43°25' E 004°51'0 0.0
2014-Aug-16 16:31N 43°25' E 004°51'0 0.0
2014-Aug-16 15:13N 43°25' E 004°51'0 0.0
2014-Aug-16 12:33N 43°25' E 004°51'2 2.2
2014-Aug-16 11:32N 43°26' E 004°54'0 0.0
2014-Aug-16 10:32N 43°26' E 004°54'0 0.0
2014-Aug-16 09:26N 43°26' E 004°54'4 4.9
2014-Aug-16 08:31N 43°24' E 004°59'0 0.0
2014-Aug-16 07:31N 43°24' E 004°59'0 0.0
2014-Aug-16 06:31N 43°24' E 004°59'0 0.0
2014-Aug-16 05:31N 43°24' E 004°59'0 0.0
2014-Aug-16 04:31N 43°24' E 004°59'0 0.0
2014-Aug-16 03:31N 43°24' E 004°59'0 0.0
2014-Aug-16 02:31N 43°24' E 004°59'0 0.0
2014-Aug-16 01:31N 43°24' E 004°59'0 0.0
2014-Aug-16 00:31N 43°24' E 004°59'0 0.0
2014-Aug-15 23:31N 43°24' E 004°59'0 0.0
2014-Aug-15 22:31N 43°24' E 004°59'0 0.0
2014-Aug-15 21:31N 43°24' E 004°59'0 0.0
2014-Aug-15 20:31N 43°24' E 004°59'0 0.0
2014-Aug-15 19:31N 43°24' E 004°59'0 0.0
2014-Aug-15 18:31N 43°24' E 004°59'0 0.0
2014-Aug-15 17:31N 43°24' E 004°59'0 0.0
2014-Aug-15 16:31N 43°24' E 004°59'0 0.0
2014-Aug-15 15:31N 43°24' E 004°59'0 0.0
2014-Aug-15 14:31N 43°24' E 004°59'0 0.0
2014-Aug-15 13:31N 43°24' E 004°59'0 0.0
2014-Aug-15 12:31N 43°24' E 004°59'0 0.0
2014-Aug-15 11:28N 43°24' E 004°59'0 0.0
2014-Aug-15 10:31N 43°24' E 004°59'0 0.0
2014-Aug-15 09:31N 43°24' E 004°59'1 0.6
2014-Aug-15 08:32N 43°24' E 004°59'0 0.0
2014-Aug-15 07:32N 43°24' E 004°59'0 0.0
2014-Aug-15 06:32N 43°24' E 004°59'0 0.0
2014-Aug-15 05:32N 43°24' E 004°59'0 0.0
2014-Aug-15 04:32N 43°24' E 004°59'0 0.0
2014-Aug-15 03:32N 43°24' E 004°59'0 0.0
2014-Aug-15 02:32N 43°24' E 004°59'0 0.0
2014-Aug-15 01:32N 43°24' E 004°59'0 0.0
2014-Aug-15 00:32N 43°24' E 004°59'0 0.0
2014-Aug-14 23:32N 43°24' E 004°59'0 0.0
2014-Aug-14 22:32N 43°24' E 004°59'0 0.0
2014-Aug-14 21:32N 43°24' E 004°59'0 0.0
2014-Aug-14 20:32N 43°24' E 004°59'0 0.0
2014-Aug-14 19:32N 43°24' E 004°59'0 0.0
2014-Aug-14 18:32N 43°24' E 004°59'0 0.0
2014-Aug-14 17:32N 43°24' E 004°59'0 0.0
2014-Aug-14 16:32N 43°24' E 004°59'0 0.0
2014-Aug-14 15:32N 43°24' E 004°59'0 0.0
2014-Aug-14 14:32N 43°24' E 004°59'0 0.0
2014-Aug-14 13:32N 43°24' E 004°59'0 0.0
2014-Aug-14 12:32N 43°24' E 004°59'6 5.9
2014-Aug-14 11:29N 43°25' E 004°51'0 0.1
2014-Aug-14 10:32N 43°25' E 004°51'0 0.0
2014-Aug-14 08:32N 43°25' E 004°51'0 0.0
2014-Aug-14 07:29N 43°25' E 004°51'0 0.0
2014-Aug-14 06:26N 43°25' E 004°51'6 6.9
2014-Aug-14 05:32N 43°24' E 004°59'0 0.0
2014-Aug-14 04:32N 43°24' E 004°59'0 0.0
2014-Aug-14 03:32N 43°24' E 004°59'0 0.0
2014-Aug-14 02:32N 43°24' E 004°59'0 0.0
2014-Aug-14 01:32N 43°24' E 004°59'0 0.0
2014-Aug-14 00:32N 43°24' E 004°59'0 0.0
2014-Aug-13 23:32N 43°24' E 004°59'0 0.0
2014-Aug-13 22:32N 43°24' E 004°59'0 0.0
2014-Aug-13 21:32N 43°24' E 004°59'0 0.0
2014-Aug-13 20:32N 43°24' E 004°59'0 0.0
2014-Aug-13 19:32N 43°24' E 004°59'1 0.6
2014-Aug-13 18:33N 43°24' E 004°59'0 0.0
2014-Aug-13 17:33N 43°24' E 004°59'0 0.0
2014-Aug-13 16:33N 43°24' E 004°59'3 2.9
2014-Aug-13 15:34N 43°24' E 004°55'4 4.1
2014-Aug-13 14:32N 43°25' E 004°50'0 0.0
2014-Aug-13 13:32N 43°25' E 004°50'0 0.0
2014-Aug-13 12:32N 43°25' E 004°50'0 0.0
2014-Aug-13 11:32N 43°25' E 004°50'0 0.0
2014-Aug-13 10:28N 43°25' E 004°50'0 0.0
2014-Aug-13 09:25N 43°25' E 004°50'0 0.0
2014-Aug-13 08:19N 43°25' E 004°50'0 0.0
2014-Aug-13 07:31N 43°25' E 004°50'7 3.5
2014-Aug-13 05:33N 43°24' E 004°59'0 0.1
2014-Aug-13 04:33N 43°24' E 004°59'  
Track history (hours):
 
Tides and Currents Weather Stations Pressure Air Temp Water Temp Dewpoint Dewpoint Depression Visibility Wind Speed Wind Dir Waves Ship Positions

Cap Aiguades

Last reported at 2014-Aug-23 03:33 UTC. Time now 2014-Aug-23 13:30 UTC.
Position N 43°24' E 004°55'.

Length 89 m; draft 3 m.

Type: Ship. MMSI: 228237800.

Date/timePositionNaut miles runAvg speedWind from/ knotsBaromVisibWave heightAir tempDewpointWater temp
2014-Aug-23 03:33N 43°24' E 004°55'3 2.8
2014-Aug-23 02:33N 43°24' E 004°59'0 0.0
2014-Aug-23 01:33N 43°24' E 004°59'0 0.0
2014-Aug-23 00:33N 43°24' E 004°59'0 0.0
2014-Aug-22 23:33N 43°24' E 004°59'0 0.0
2014-Aug-22 22:33N 43°24' E 004°59'0 0.0
2014-Aug-22 21:33N 43°24' E 004°59'0 0.0
2014-Aug-22 20:33N 43°24' E 004°59'0 0.0
2014-Aug-22 19:33N 43°24' E 004°59'0 0.0
2014-Aug-22 18:33N 43°24' E 004°59'0 0.0
2014-Aug-22 17:33N 43°24' E 004°59'0 0.0
2014-Aug-22 16:33N 43°24' E 004°59'0 0.0
2014-Aug-22 15:33N 43°24' E 004°59'0 0.0
2014-Aug-22 14:33N 43°24' E 004°59'0 0.0
2014-Aug-22 13:33N 43°24' E 004°59'0 0.0
2014-Aug-22 12:33N 43°24' E 004°59'1 0.6
2014-Aug-22 11:33N 43°24' E 004°59'0 0.0
2014-Aug-22 10:33N 43°24' E 004°59'7 7.1
2014-Aug-22 09:33N 43°18' E 005°03'1110.6
2014-Aug-22 08:33N 43°20' E 005°17'2 2.4
2014-Aug-22 07:33N 43°21' E 005°20'0 0.0
2014-Aug-22 06:33N 43°21' E 005°20'15 7.5
2014-Aug-22 04:33N 43°19' E 005°00'4 4.3
2014-Aug-22 03:33N 43°24' E 004°59'0 0.0
2014-Aug-22 02:33N 43°24' E 004°59'0 0.0
2014-Aug-22 01:33N 43°24' E 004°59'0 0.0
2014-Aug-22 00:33N 43°24' E 004°59'0 0.0
2014-Aug-21 23:33N 43°24' E 004°59'0 0.0
2014-Aug-21 22:33N 43°24' E 004°59'0 0.0
2014-Aug-21 21:33N 43°24' E 004°59'0 0.0
2014-Aug-21 20:33N 43°24' E 004°59'0 0.0
2014-Aug-21 19:33N 43°24' E 004°59'0 0.0
2014-Aug-21 18:33N 43°24' E 004°59'0 0.0
2014-Aug-21 17:33N 43°24' E 004°59'0 0.0
2014-Aug-21 16:33N 43°24' E 004°59'1 0.5
2014-Aug-21 15:33N 43°24' E 004°59'0 0.0
2014-Aug-21 14:33N 43°24' E 004°59'0 0.0
2014-Aug-21 13:33N 43°24' E 004°59'1 1.4
2014-Aug-21 12:33N 43°23' E 004°58'4 4.1
2014-Aug-21 11:33N 43°25' E 004°53'0 0.0
2014-Aug-21 10:33N 43°25' E 004°53'0 0.0
2014-Aug-21 09:33N 43°25' E 004°53'3 3.2
2014-Aug-21 08:33N 43°24' E 004°57'2 1.7
2014-Aug-21 07:33N 43°24' E 004°59'0 0.0
2014-Aug-21 06:33N 43°24' E 004°59'0 0.0
2014-Aug-21 05:33N 43°24' E 004°59'0 0.2
2014-Aug-21 04:33N 43°24' E 004°59'9 8.6
2014-Aug-21 03:33N 43°15' E 005°01'10 8.2
2014-Aug-21 02:17N 43°09' E 005°13'16 9.0
2014-Aug-21 00:32N 43°05' E 005°34'9 9.2
2014-Aug-20 23:34N 43°02' E 005°45'9 9.3
2014-Aug-20 22:33N 43°02' E 005°58'5 4.5
2014-Aug-20 21:29N 43°07' E 005°56'0 0.1
2014-Aug-20 19:10N 43°07' E 005°56'0 0.0
2014-Aug-20 18:31N 43°07' E 005°56'0 0.1
2014-Aug-20 17:19N 43°07' E 005°56'0 0.0
2014-Aug-20 16:31N 43°07' E 005°56'0 0.0
2014-Aug-20 14:25N 43°07' E 005°56'0 0.1
2014-Aug-20 13:31N 43°07' E 005°56'2 1.2
2014-Aug-20 12:15N 43°06' E 005°54'0 0.0
2014-Aug-20 10:30N 43°06' E 005°54'0 0.0
2014-Aug-20 09:18N 43°06' E 005°54'2 1.6
2014-Aug-20 08:20N 43°07' E 005°56'0 0.0
2014-Aug-20 07:23N 43°07' E 005°56'0 0.0
2014-Aug-20 06:29N 43°07' E 005°56'0 0.1
2014-Aug-20 05:29N 43°07' E 005°56'0 0.0
2014-Aug-20 04:17N 43°07' E 005°56'0 0.3
2014-Aug-20 03:33N 43°07' E 005°56'2 1.5
2014-Aug-20 02:28N 43°06' E 005°53'0 0.0
2014-Aug-20 01:31N 43°06' E 005°53'0 0.0
2014-Aug-20 00:28N 43°06' E 005°53'0 0.0
2014-Aug-19 23:28N 43°06' E 005°53'0 0.0
2014-Aug-19 22:25N 43°06' E 005°53'0 0.0
2014-Aug-19 21:07N 43°06' E 005°53'0 0.0
2014-Aug-19 20:16N 43°06' E 005°53'0 0.0
2014-Aug-19 19:04N 43°06' E 005°53'0 0.0
2014-Aug-19 17:25N 43°06' E 005°53'1 0.4
2014-Aug-19 15:33N 43°07' E 005°54'2 0.6
2014-Aug-19 12:33N 43°05' E 005°57'9 9.1
2014-Aug-19 11:33N 42°57' E 005°60'8 8.2
2014-Aug-19 10:33N 42°56' E 005°49'1010.1
2014-Aug-19 09:33N 42°59' E 005°36'2610.4
2014-Aug-19 07:05N 43°10' E 005°04'5 9.3
2014-Aug-19 06:33N 43°14' E 005°00'10 9.7
2014-Aug-19 05:33N 43°24' E 004°59'0 0.1
2014-Aug-19 04:32N 43°24' E 004°59'0 0.0
2014-Aug-19 03:32N 43°24' E 004°59'0 0.0
2014-Aug-19 02:32N 43°24' E 004°59'0 0.0
2014-Aug-19 01:32N 43°24' E 004°59'0 0.0
2014-Aug-19 00:32N 43°24' E 004°59'0 0.0
2014-Aug-18 23:32N 43°24' E 004°59'0 0.0
2014-Aug-18 22:32N 43°24' E 004°59'0 0.0
2014-Aug-18 21:32N 43°24' E 004°59'0 0.0
2014-Aug-18 20:32N 43°24' E 004°59'0 0.0
2014-Aug-18 19:32N 43°24' E 004°59'0 0.0
2014-Aug-18 18:32N 43°24' E 004°59'0 0.0
2014-Aug-18 17:32N 43°24' E 004°59'0 0.0
2014-Aug-18 16:32N 43°24' E 004°59'0 0.0
2014-Aug-18 15:32N 43°24' E 004°59'1 0.6
2014-Aug-18 14:33N 43°24' E 004°59'0 0.0
2014-Aug-18 13:33N 43°24' E 004°59'0 0.0
2014-Aug-18 12:33N 43°24' E 004°59'0 0.0
2014-Aug-18 11:33N 43°24' E 004°59'0 0.0
2014-Aug-18 10:33N 43°24' E 004°59'0 0.0
2014-Aug-18 09:30N 43°24' E 004°59'0 0.0
2014-Aug-18 08:33N 43°24' E 004°59'0 0.0
2014-Aug-18 07:33N 43°24' E 004°59'0 0.0
2014-Aug-18 06:33N 43°24' E 004°59'0 0.0
2014-Aug-18 05:33N 43°24' E 004°59'0 0.0
2014-Aug-18 04:33N 43°24' E 004°59'0 0.0
2014-Aug-18 03:33N 43°24' E 004°59'0 0.0
2014-Aug-18 02:33N 43°24' E 004°59'0 0.0
2014-Aug-18 01:33N 43°24' E 004°59'0 0.0
2014-Aug-18 00:33N 43°24' E 004°59'0 0.0
2014-Aug-17 18:33N 43°24' E 004°59'0 0.0
2014-Aug-17 17:33N 43°24' E 004°59'0 0.0
2014-Aug-17 16:33N 43°24' E 004°59'0 0.0
2014-Aug-17 15:33N 43°24' E 004°59'7 3.4
2014-Aug-17 13:32N 43°25' E 004°50'0 0.0
2014-Aug-17 12:26N 43°25' E 004°50'0 0.0
2014-Aug-17 11:32N 43°25' E 004°50'0 0.0
2014-Aug-17 10:26N 43°25' E 004°50'0 0.0
2014-Aug-17 09:32N 43°25' E 004°50'3 1.0
2014-Aug-17 06:33N 43°24' E 004°54'4 4.0
2014-Aug-17 05:33N 43°24' E 004°59'0 0.0
2014-Aug-17 04:33N 43°24' E 004°59'0 0.0
2014-Aug-17 03:33N 43°24' E 004°59'0 0.0
2014-Aug-17 02:33N 43°24' E 004°59'0 0.0
2014-Aug-17 01:33N 43°24' E 004°59'0 0.0
2014-Aug-17 00:33N 43°24' E 004°59'0 0.0
2014-Aug-16 23:33N 43°24' E 004°59'0 0.0
2014-Aug-16 22:33N 43°24' E 004°59'0 0.0
2014-Aug-16 21:33N 43°24' E 004°59'0 0.1
2014-Aug-16 20:33N 43°24' E 004°59'6 6.0
2014-Aug-16 19:31N 43°25' E 004°51'0 0.0
2014-Aug-16 18:31N 43°25' E 004°51'0 0.0
2014-Aug-16 17:25N 43°25' E 004°51'0 0.0
2014-Aug-16 16:31N 43°25' E 004°51'0 0.0
2014-Aug-16 15:13N 43°25' E 004°51'0 0.0
2014-Aug-16 12:33N 43°25' E 004°51'2 2.2
2014-Aug-16 11:32N 43°26' E 004°54'0 0.0
2014-Aug-16 10:32N 43°26' E 004°54'0 0.0
2014-Aug-16 09:26N 43°26' E 004°54'4 4.9
2014-Aug-16 08:31N 43°24' E 004°59'0 0.0
2014-Aug-16 07:31N 43°24' E 004°59'0 0.0
2014-Aug-16 06:31N 43°24' E 004°59'0 0.0
2014-Aug-16 05:31N 43°24' E 004°59'0 0.0
2014-Aug-16 04:31N 43°24' E 004°59'0 0.0
2014-Aug-16 03:31N 43°24' E 004°59'0 0.0
2014-Aug-16 02:31N 43°24' E 004°59'0 0.0
2014-Aug-16 01:31N 43°24' E 004°59'0 0.0
2014-Aug-16 00:31N 43°24' E 004°59'0 0.0
2014-Aug-15 23:31N 43°24' E 004°59'0 0.0
2014-Aug-15 22:31N 43°24' E 004°59'0 0.0
2014-Aug-15 21:31N 43°24' E 004°59'0 0.0
2014-Aug-15 20:31N 43°24' E 004°59'0 0.0
2014-Aug-15 19:31N 43°24' E 004°59'0 0.0
2014-Aug-15 18:31N 43°24' E 004°59'0 0.0
2014-Aug-15 17:31N 43°24' E 004°59'0 0.0
2014-Aug-15 16:31N 43°24' E 004°59'0 0.0
2014-Aug-15 15:31N 43°24' E 004°59'0 0.0
2014-Aug-15 14:31N 43°24' E 004°59'0 0.0
2014-Aug-15 13:31N 43°24' E 004°59'0 0.0
2014-Aug-15 12:31N 43°24' E 004°59'0 0.0
2014-Aug-15 11:28N 43°24' E 004°59'0 0.0
2014-Aug-15 10:31N 43°24' E 004°59'0 0.0
2014-Aug-15 09:31N 43°24' E 004°59'1 0.6
2014-Aug-15 08:32N 43°24' E 004°59'0 0.0
2014-Aug-15 07:32N 43°24' E 004°59'0 0.0
2014-Aug-15 06:32N 43°24' E 004°59'0 0.0
2014-Aug-15 05:32N 43°24' E 004°59'0 0.0
2014-Aug-15 04:32N 43°24' E 004°59'0 0.0
2014-Aug-15 03:32N 43°24' E 004°59'0 0.0
2014-Aug-15 02:32N 43°24' E 004°59'0 0.0
2014-Aug-15 01:32N 43°24' E 004°59'0 0.0
2014-Aug-15 00:32N 43°24' E 004°59'0 0.0
2014-Aug-14 23:32N 43°24' E 004°59'0 0.0
2014-Aug-14 22:32N 43°24' E 004°59'0 0.0
2014-Aug-14 21:32N 43°24' E 004°59'0 0.0
2014-Aug-14 20:32N 43°24' E 004°59'0 0.0
2014-Aug-14 19:32N 43°24' E 004°59'0 0.0
2014-Aug-14 18:32N 43°24' E 004°59'0 0.0
2014-Aug-14 17:32N 43°24' E 004°59'0 0.0
2014-Aug-14 16:32N 43°24' E 004°59'0 0.0
2014-Aug-14 15:32N 43°24' E 004°59'0 0.0
2014-Aug-14 14:32N 43°24' E 004°59'0 0.0
2014-Aug-14 13:32N 43°24' E 004°59'0 0.0
2014-Aug-14 12:32N 43°24' E 004°59'6 5.9
2014-Aug-14 11:29N 43°25' E 004°51'0 0.1
2014-Aug-14 10:32N 43°25' E 004°51'0 0.0
2014-Aug-14 08:32N 43°25' E 004°51'0 0.0
2014-Aug-14 07:29N 43°25' E 004°51'0 0.0
2014-Aug-14 06:26N 43°25' E 004°51'6 6.9
2014-Aug-14 05:32N 43°24' E 004°59'0 0.0
2014-Aug-14 04:32N 43°24' E 004°59'0 0.0
2014-Aug-14 03:32N 43°24' E 004°59'0 0.0
2014-Aug-14 02:32N 43°24' E 004°59'0 0.0
2014-Aug-14 01:32N 43°24' E 004°59'0 0.0
2014-Aug-14 00:32N 43°24' E 004°59'0 0.0
2014-Aug-13 23:32N 43°24' E 004°59'0 0.0
2014-Aug-13 22:32N 43°24' E 004°59'0 0.0
2014-Aug-13 21:32N 43°24' E 004°59'0 0.0
2014-Aug-13 20:32N 43°24' E 004°59'0 0.0
2014-Aug-13 19:32N 43°24' E 004°59'1 0.6
2014-Aug-13 18:33N 43°24' E 004°59'0 0.0
2014-Aug-13 17:33N 43°24' E 004°59'0 0.0
2014-Aug-13 16:33N 43°24' E 004°59'3 2.9
2014-Aug-13 15:34N 43°24' E 004°55'4 4.1
2014-Aug-13 14:32N 43°25' E 004°50'0 0.0
2014-Aug-13 13:32N 43°25' E 004°50'0 0.0
2014-Aug-13 12:32N 43°25' E 004°50'0 0.0
2014-Aug-13 11:32N 43°25' E 004°50'0 0.0
2014-Aug-13 10:28N 43°25' E 004°50'0 0.0
2014-Aug-13 09:25N 43°25' E 004°50'0 0.0
2014-Aug-13 08:19N 43°25' E 004°50'0 0.0
2014-Aug-13 07:31N 43°25' E 004°50'7 3.5
2014-Aug-13 05:33N 43°24' E 004°59'0 0.1
2014-Aug-13 04:33N 43°24' E 004°59'  

Dump ship's entire track history